Time;durP1;ratioP1;P1;durP2;ratioP2;P2;SDS_P1;SDS_P2;PMS_P1;PMS_P2;Temp;Humidity;BMP_temperature;BMP_pressure;BME280_temperature;BME280_humidity;BME280_pressure;Samples;Min_cycle;Max_cycle;Signal;HPM_P1;HPM_P2
2022/05/18 00:01:09;;;;;;;3.60;3.30;;;20.60;99.90;;;21.32;nan;101048.25;5034912;28;21030;-70
2022/05/18 00:03:42;;;;;;;6.73;3.70;;;20.60;99.90;;;21.29;nan;101055.75;5032102;28;20643;-64
2022/05/18 00:06:10;;;;;;;4.20;3.80;;;20.60;99.90;;;21.27;nan;101053.25;5017342;28;20985;-68
2022/05/18 00:08:38;;;;;;;4.37;3.43;;;20.50;99.90;;;21.21;nan;101047.81;5032477;28;20644;-67
2022/05/18 00:11:15;;;;;;;4.27;3.50;;;20.50;99.90;;;21.19;nan;101050.59;5033100;28;20664;-68
2022/05/18 00:13:47;;;;;;;3.73;3.43;;;20.40;99.90;;;21.16;nan;101052.78;5032527;28;20667;-69
2022/05/18 00:16:16;;;;;;;3.40;3.10;;;20.40;99.90;;;21.08;nan;101055.44;5033671;28;20639;-67
2022/05/18 00:18:45;;;;;;;5.07;3.50;;;20.30;99.90;;;21.00;nan;101056.22;5034273;28;20988;-68
2022/05/18 00:21:13;;;;;;;3.90;3.50;;;20.20;99.90;;;20.98;nan;101052.91;5031977;28;20688;-69
2022/05/18 00:23:40;;;;;;;3.90;3.20;;;20.20;99.90;;;20.95;nan;101063.03;5033459;28;20655;-65
2022/05/18 00:26:07;;;;;;;3.80;3.50;;;20.20;99.90;;;20.85;nan;101065.84;5033280;28;20685;-70
2022/05/18 00:28:34;;;;;;;3.90;3.60;;;20.10;99.90;;;20.85;nan;101061.38;5031528;28;20640;-67
2022/05/18 00:31:02;;;;;;;4.13;3.70;;;20.10;99.90;;;20.84;nan;101059.75;5012667;28;20657;-68
2022/05/18 00:33:30;;;;;;;3.87;3.57;;;20.10;99.90;;;20.79;nan;101066.50;5013141;28;20651;-68
2022/05/18 00:35:58;;;;;;;4.50;3.77;;;20.10;99.90;;;20.76;nan;101069.50;5031141;28;21002;-69
2022/05/18 00:38:26;;;;;;;5.50;3.50;;;20.00;99.90;;;20.84;nan;101066.84;5033268;28;20636;-68
2022/05/18 00:40:53;;;;;;;7.53;4.00;;;20.10;99.90;;;20.82;nan;101060.91;5033910;28;20628;-67
2022/05/18 00:43:45;;;;;;;9.10;3.73;;;20.10;99.90;;;20.76;nan;101057.06;5033415;28;20671;-68
2022/05/18 00:46:14;;;;;;;3.80;3.30;;;20.00;99.90;;;20.73;nan;101061.88;5019924;28;20641;-68
2022/05/18 00:48:45;;;;;;;5.23;3.00;;;20.00;99.90;;;20.71;nan;101054.09;5012330;28;20648;-68
2022/05/18 00:51:34;;;;;;;3.60;3.33;;;19.90;99.90;;;20.62;nan;101048.94;5026717;28;20665;-67
2022/05/18 00:54:34;;;;;;;3.83;3.50;;;19.90;99.90;;;20.56;nan;101052.25;5027825;28;20620;-68
2022/05/18 00:57:09;;;;;;;5.87;3.70;;;19.80;99.90;;;20.53;nan;101045.44;5015102;28;20702;-68
2022/05/18 01:00:00;;;;;;;4.20;3.80;;;19.80;99.90;;;20.46;nan;101044.47;5031182;28;20643;-67
2022/05/18 01:02:30;;;;;;;6.40;3.30;;;19.70;99.90;;;20.47;nan;101039.97;5013005;28;21032;-67
2022/05/18 01:05:02;;;;;;;3.80;3.50;;;19.70;99.90;;;20.44;nan;101042.97;5026561;28;20650;-68
2022/05/18 01:07:43;;;;;;;5.13;3.70;;;19.70;99.90;;;20.42;nan;101047.59;5018199;28;20645;-68
2022/05/18 01:10:11;;;;;;;4.07;3.50;;;19.70;99.90;;;20.34;nan;101045.75;5027196;28;20708;-68
2022/05/18 01:12:38;;;;;;;3.97;3.70;;;19.70;99.90;;;20.33;nan;101044.13;5012682;28;20654;-68
2022/05/18 01:15:10;;;;;;;3.83;3.50;;;19.60;99.90;;;20.36;nan;101046.44;5016486;28;21223;-68
2022/05/18 01:17:41;;;;;;;4.70;4.17;;;19.60;99.90;;;20.31;nan;101043.44;5030493;28;20628;-67
2022/05/18 01:20:15;;;;;;;7.03;4.30;;;19.60;99.90;;;20.24;nan;101044.25;5030827;28;21066;-68
2022/05/18 01:22:53;;;;;;;5.57;3.57;;;19.50;99.90;;;20.25;nan;101038.81;5029871;28;20660;-67
2022/05/18 01:25:37;;;;;;;5.00;3.67;;;19.50;99.90;;;20.21;nan;101036.66;5030458;28;20985;-67
2022/05/18 01:28:07;;;;;;;5.87;3.53;;;19.50;99.90;;;20.26;nan;101036.97;5030973;28;20636;-67
2022/05/18 01:30:42;;;;;;;5.50;4.17;;;19.50;99.90;;;20.21;nan;101041.94;5031545;28;21012;-67
2022/05/18 01:33:10;;;;;;;4.20;3.80;;;19.50;99.90;;;20.13;nan;101051.50;5031088;28;20664;-68
2022/05/18 01:35:41;;;;;;;3.60;3.27;;;19.40;99.90;;;20.09;nan;101055.44;5031413;28;20632;-68
2022/05/18 01:38:12;;;;;;;3.80;3.30;;;19.40;99.90;;;20.02;nan;101046.47;5031081;28;20643;-67
2022/05/18 01:40:58;;;;;;;3.63;3.30;;;19.30;99.90;;;19.99;nan;101046.81;5031873;28;20636;-69
2022/05/18 01:43:31;;;;;;;6.00;3.70;;;19.30;99.90;;;19.93;nan;101047.44;5029772;28;21233;-66
2022/05/18 01:46:04;;;;;;;4.40;3.53;;;19.20;99.90;;;19.94;nan;101049.13;5023459;28;20641;-68
2022/05/18 01:48:41;;;;;;;3.50;3.20;;;19.20;99.90;;;19.96;nan;101057.72;5012365;28;20642;-70
2022/05/18 01:51:11;;;;;;;5.00;3.73;;;19.20;99.90;;;19.97;nan;101059.41;5014988;28;20668;-68
2022/05/18 01:53:38;;;;;;;4.50;3.87;;;19.30;99.90;;;19.90;nan;101066.31;5025687;28;20658;-67
2022/05/18 01:56:08;;;;;;;7.10;3.80;;;19.20;99.90;;;19.87;nan;101074.56;5010593;28;20684;-69
2022/05/18 01:58:35;;;;;;;6.20;3.90;;;19.20;99.90;;;19.85;nan;101076.53;5020524;28;21154;-64
2022/05/18 02:01:03;;;;;;;5.03;4.20;;;19.20;99.90;;;19.81;nan;101084.97;5030451;28;21220;-68
2022/05/18 02:03:31;;;;;;;4.53;4.10;;;19.10;99.90;;;19.79;nan;101082.47;5030444;28;20730;-67
2022/05/18 02:05:58;;;;;;;4.20;3.80;;;19.10;99.90;;;19.80;nan;101078.03;5061117;28;20640;-67
2022/05/18 02:08:25;;;;;;;4.17;3.50;;;19.10;99.90;;;19.74;nan;101078.66;5030167;28;20670;-68
2022/05/18 02:10:52;;;;;;;4.13;3.80;;;19.00;99.90;;;19.73;nan;101077.00;5010176;28;21250;-67
2022/05/18 02:13:20;;;;;;;5.60;4.20;;;19.00;99.90;;;19.66;nan;101068.00;5025209;28;20664;-67
2022/05/18 02:15:48;;;;;;;4.97;3.93;;;19.00;99.90;;;19.63;nan;101076.28;5028447;28;20620;-67
2022/05/18 02:18:15;;;;;;;6.17;4.40;;;18.90;99.90;;;19.67;nan;101070.53;5032415;28;20625;-67
2022/05/18 02:20:42;;;;;;;4.00;3.63;;;19.00;99.90;;;19.63;nan;101071.00;5031333;28;21092;-67
2022/05/18 02:23:09;;;;;;;4.83;4.17;;;18.90;99.90;;;19.61;nan;101073.81;5021981;28;21006;-67
2022/05/18 02:25:37;;;;;;;7.17;4.53;;;18.90;99.90;;;19.58;nan;101075.91;5028614;28;20621;-67
2022/05/18 02:28:05;;;;;;;5.90;4.30;;;18.90;99.90;;;19.56;nan;101065.50;5019466;28;20655;-67
2022/05/18 02:30:32;;;;;;;4.57;4.07;;;18.90;99.90;;;19.56;nan;101076.09;5030873;28;20675;-68
2022/05/18 02:33:00;;;;;;;4.47;3.77;;;18.90;99.90;;;19.56;nan;101070.78;5030143;28;20659;-67
2022/05/18 02:35:27;;;;;;;7.77;4.03;;;18.90;99.90;;;19.58;nan;101071.47;5015109;28;20641;-67
2022/05/18 02:37:54;;;;;;;9.70;5.13;;;18.90;99.90;;;19.54;nan;101075.41;5011853;28;20645;-68
2022/05/18 02:40:22;;;;;;;4.70;4.20;;;18.90;99.90;;;19.45;nan;101072.84;5012585;28;20625;-68
2022/05/18 02:42:49;;;;;;;5.73;4.70;;;18.70;99.90;;;19.37;nan;101071.00;5023221;28;20665;-67
2022/05/18 02:45:16;;;;;;;6.53;4.67;;;18.70;99.90;;;19.36;nan;101077.28;5030613;28;20633;-67
2022/05/18 02:47:43;;;;;;;5.70;4.53;;;18.70;99.90;;;19.34;nan;101069.50;5015833;28;20629;-67
2022/05/18 02:50:10;;;;;;;6.30;4.30;;;18.70;99.90;;;19.25;nan;101072.22;5010203;28;20625;-68
2022/05/18 02:52:38;;;;;;;8.47;4.03;;;18.60;99.90;;;19.26;nan;101080.00;5009869;28;20744;-68
2022/05/18 02:58:12;;;;;;;6.93;4.03;;;18.50;99.90;;;19.21;nan;101084.91;4987311;28;20645;-68
2022/05/18 03:00:39;;;;;;;6.77;4.80;;;18.50;99.90;;;19.18;nan;101084.41;5003397;28;20640;-68
2022/05/18 03:03:06;;;;;;;5.50;4.10;;;18.50;99.90;;;19.19;nan;101086.88;5002872;28;20691;-67
2022/05/18 03:05:33;;;;;;;5.73;4.70;;;18.50;99.90;;;19.16;nan;101094.31;5029663;28;20629;-67
2022/05/18 03:08:00;;;;;;;7.43;4.67;;;18.50;99.90;;;19.16;nan;101091.66;5029796;28;21160;-68
2022/05/18 03:10:27;;;;;;;5.33;4.80;;;18.50;99.90;;;19.12;nan;101098.25;5031246;28;20620;-67
2022/05/18 03:12:54;;;;;;;5.70;4.57;;;18.40;99.90;;;19.07;nan;101093.41;5026812;28;22489;-67
2022/05/18 03:15:21;;;;;;;6.40;4.60;;;18.40;99.90;;;19.10;nan;101108.97;5028521;28;20632;-68
2022/05/18 03:17:49;;;;;;;5.53;4.80;;;18.40;99.90;;;19.07;nan;101108.47;5012254;28;21231;-67
2022/05/18 03:25:47;;;;;;;5.43;4.27;;;18.40;99.90;;;19.02;nan;101123.94;5024399;28;20640;-67
2022/05/18 03:28:14;;;;;;;4.77;4.30;;;18.30;99.90;;;19.03;nan;101130.91;5027614;28;21000;-67
2022/05/18 03:30:41;;;;;;;6.40;4.57;;;18.40;99.90;;;18.94;nan;101132.66;5030040;28;21066;-67
2022/05/18 03:33:08;;;;;;;3.97;3.67;;;18.30;99.90;;;18.86;nan;101132.59;5030845;28;20700;-67
2022/05/18 03:35:35;;;;;;;5.37;4.60;;;18.20;99.90;;;18.78;nan;101131.69;5028162;28;20636;-68
2022/05/18 03:38:05;;;;;;;7.30;5.00;;;18.10;99.90;;;18.74;nan;101140.91;5030181;28;20617;-67
2022/05/18 03:40:36;;;;;;;8.70;4.97;;;18.10;99.90;;;18.71;nan;101142.00;5028693;28;20632;-68
2022/05/18 03:43:04;;;;;;;7.00;5.47;;;18.10;99.90;;;18.64;nan;101145.38;5028023;28;20648;-67
2022/05/18 03:45:35;;;;;;;5.73;5.00;;;18.00;99.90;;;18.64;nan;101145.38;5026750;28;20616;-65
2022/05/18 03:48:03;;;;;;;7.87;5.87;;;18.00;99.90;;;18.68;nan;101147.59;5020830;28;21224;-67
2022/05/18 03:50:30;;;;;;;6.83;5.93;;;18.10;99.90;;;18.71;nan;101144.66;5027893;28;20643;-67
2022/05/18 03:52:59;;;;;;;11.23;5.27;;;18.10;99.90;;;18.73;nan;101155.06;5014514;28;20677;-67
2022/05/18 03:55:26;;;;;;;5.97;4.17;;;18.10;99.90;;;18.79;nan;101160.59;5014726;28;20636;-67
2022/05/18 03:57:55;;;;;;;5.63;5.03;;;18.10;99.90;;;18.73;nan;101153.28;5025294;28;21197;-67
2022/05/18 04:00:23;;;;;;;7.07;5.10;;;18.10;99.90;;;18.70;nan;101153.56;5008008;28;21197;-68
2022/05/18 04:02:50;;;;;;;6.33;4.50;;;18.10;99.90;;;18.76;nan;101154.78;5009051;28;20664;-67
2022/05/18 04:05:20;;;;;;;5.90;4.77;;;18.20;99.90;;;18.75;nan;101143.38;5013124;28;20702;-68
2022/05/18 04:07:50;;;;;;;6.80;5.43;;;18.10;99.90;;;18.76;nan;101149.50;5028567;28;20620;-67
2022/05/18 04:10:18;;;;;;;8.03;4.97;;;18.20;99.90;;;18.83;nan;101153.19;5028648;28;21004;-67
2022/05/18 04:12:45;;;;;;;5.20;4.50;;;18.20;99.90;;;18.85;nan;101162.63;5027883;28;20680;-67
2022/05/18 04:15:16;;;;;;;5.53;5.03;;;18.20;99.90;;;18.98;nan;101164.91;5029261;28;20632;-67
2022/05/18 04:17:46;;;;;;;9.07;5.97;;;18.30;99.90;;;19.12;nan;101156.44;5017828;28;20633;-68
2022/05/18 04:20:17;;;;;;;6.33;5.10;;;18.60;99.90;;;19.30;nan;101162.53;5015232;28;21051;-68
2022/05/18 04:22:45;;;;;;;16.70;5.37;;;18.70;99.90;;;19.43;nan;101168.28;5028831;28;20671;-67
2022/05/18 04:25:17;;;;;;;7.83;5.30;;;18.90;99.90;;;19.58;nan;101168.56;5023437;28;20640;-68
2022/05/18 04:27:47;;;;;;;6.57;4.83;;;19.00;99.90;;;19.80;nan;101170.69;5024211;28;21365;-68
2022/05/18 04:30:19;;;;;;;6.80;5.27;;;19.30;99.90;;;19.99;nan;101171.31;5009164;28;20637;-68
2022/05/18 04:32:47;;;;;;;6.87;5.40;;;19.50;99.90;;;20.22;nan;101173.41;5026157;28;21226;-69
2022/05/18 04:35:19;;;;;;;5.17;4.67;;;19.80;99.90;;;20.23;nan;101167.94;5027832;28;21016;-68
2022/05/18 04:37:47;;;;;;;10.33;5.17;;;19.70;99.90;;;20.50;nan;101181.00;5032173;28;20662;-68
2022/05/18 04:40:14;;;;;;;6.33;4.90;;;20.00;99.90;;;20.66;nan;101177.53;5043501;28;20638;-68
2022/05/18 04:42:42;;;;;;;4.83;4.37;;;20.20;99.90;;;20.82;nan;101174.94;5012448;28;21257;-70
2022/05/18 04:45:13;;;;;;;5.83;5.23;;;20.30;99.90;;;21.05;nan;101183.13;5012037;28;20640;-68
2022/05/18 04:47:40;;;;;;;6.70;5.23;;;20.50;99.90;;;21.30;nan;101182.13;5012436;28;20666;-68
2022/05/18 04:50:08;;;;;;;7.53;4.27;;;20.80;99.90;;;21.45;nan;101180.47;5014038;28;20753;-68
2022/05/18 04:52:35;;;;;;;10.30;5.90;;;21.00;99.90;;;21.57;nan;101179.16;5030846;28;20664;-70
2022/05/18 04:55:04;;;;;;;8.70;5.90;;;21.10;99.90;;;21.75;nan;101171.78;5031880;28;20690;-68
2022/05/18 04:57:31;;;;;;;5.77;5.17;;;21.30;99.90;;;21.98;nan;101183.38;5033008;28;20624;-68
2022/05/18 04:59:58;;;;;;;8.03;5.40;;;21.50;99.90;;;22.12;nan;101173.88;5032924;28;20613;-68
2022/05/18 05:02:25;;;;;;;8.80;5.40;;;21.70;99.90;;;22.36;nan;101179.09;5013520;28;21250;-64
2022/05/18 05:04:52;;;;;;;6.10;5.50;;;21.90;99.90;;;22.56;nan;101177.66;5020621;28;20647;-68
2022/05/18 05:07:19;;;;;;;9.00;5.80;;;22.10;99.90;;;22.78;nan;101182.25;5032344;28;20682;-68
2022/05/18 05:09:46;;;;;;;7.97;5.67;;;22.40;99.90;;;23.00;nan;101189.38;5017756;28;20646;-68
2022/05/18 05:12:13;;;;;;;7.50;5.57;;;22.60;99.90;;;;;;5012592;28;20669;-69
2022/05/18 05:14:40;;;;;;;7.10;5.50;;;22.90;99.90;;;23.47;nan;101191.06;5016636;28;20637;-69
2022/05/18 05:17:08;;;;;;;6.17;5.20;;;23.10;99.90;;;23.67;nan;101192.19;5012245;28;21175;-69
2022/05/18 05:19:36;;;;;;;8.27;5.30;;;23.20;99.90;;;23.86;nan;101200.50;5012569;28;20648;-66
2022/05/18 05:22:04;;;;;;;6.80;4.97;;;23.50;99.90;;;24.08;nan;101206.78;5029467;28;20672;-68
2022/05/18 05:24:32;;;;;;;10.30;5.93;;;23.60;99.90;;;24.29;nan;101206.03;5030125;28;21213;-68
2022/05/18 05:26:59;;;;;;;7.33;6.10;;;23.90;99.40;;;24.57;nan;101209.69;5033389;28;20636;-68
2022/05/18 05:29:26;;;;;;;6.10;5.33;;;24.10;98.90;;;24.88;nan;101212.09;5033262;28;20627;-68
2022/05/18 05:31:53;;;;;;;12.33;6.57;;;24.50;98.30;;;25.14;nan;101220.38;5032758;28;20656;-69
2022/05/18 05:34:20;;;;;;;6.17;5.57;;;24.80;97.50;;;25.32;nan;101218.13;5029141;28;21229;-71
2022/05/18 05:36:47;;;;;;;6.57;5.60;;;24.90;97.20;;;25.58;nan;101226.38;5028698;28;20636;-68
2022/05/18 05:39:14;;;;;;;9.83;5.80;;;25.10;96.50;;;25.83;nan;101221.44;5023387;28;20636;-69
2022/05/18 05:41:42;;;;;;;8.07;5.90;;;25.40;95.90;;;26.10;nan;101226.78;5014030;28;21265;-69
2022/05/18 05:44:10;;;;;;;11.23;6.70;;;25.70;95.10;;;26.40;nan;101226.53;5015864;28;20648;-69
2022/05/18 05:46:37;;;;;;;7.73;6.20;;;26.00;94.60;;;26.69;nan;101227.06;5028495;28;20644;-70
2022/05/18 05:49:04;;;;;;;9.80;6.53;;;26.30;94.00;;;27.15;nan;101227.22;5036891;28;20668;-72
2022/05/18 05:51:31;;;;;;;7.40;5.90;;;26.80;93.00;;;27.51;nan;101227.66;5031288;28;21456;-69
2022/05/18 05:53:58;;;;;;;7.30;6.47;;;27.10;92.00;;;27.88;nan;101225.38;5026550;28;20626;-69
2022/05/18 05:56:26;;;;;;;8.03;6.07;;;27.50;91.00;;;28.26;nan;101226.38;5011481;28;20617;-68
2022/05/18 05:58:53;;;;;;;10.93;5.63;;;27.90;89.90;;;28.36;nan;101221.38;5010948;28;20640;-70
2022/05/18 06:01:20;;;;;;;7.70;6.20;;;28.20;87.60;;;28.65;nan;101223.53;5010532;28;21043;-69
2022/05/18 06:03:47;;;;;;;8.03;5.27;;;28.20;87.40;;;29.27;nan;101219.25;5011711;28;20784;-70
2022/05/18 06:06:14;;;;;;;8.37;6.20;;;28.90;84.60;;;30.05;nan;101223.94;5019392;28;20640;-68
2022/05/18 06:08:41;;;;;;;7.07;5.77;;;29.70;81.20;;;30.58;nan;101216.13;5024604;28;21194;-69
2022/05/18 06:11:10;;;;;;;9.23;5.90;;;30.30;78.20;;;31.22;nan;101218.94;5010718;28;20653;-69
2022/05/18 06:13:37;;;;;;;7.50;5.67;;;30.90;75.70;;;31.80;nan;101221.72;5017792;28;20703;-69
2022/05/18 06:16:07;;;;;;;17.00;5.73;;;31.50;72.90;;;32.32;nan;101216.41;5030610;28;20683;-69
2022/05/18 06:18:35;;;;;;;6.13;5.53;;;32.10;70.50;;;33.06;nan;101210.88;5031532;28;20666;-65
2022/05/18 06:21:03;;;;;;;7.23;5.70;;;32.70;67.60;;;33.51;nan;101208.13;5027993;28;20643;-70
2022/05/18 06:23:30;;;;;;;9.07;4.50;;;33.20;65.00;;;33.00;nan;101213.72;5031901;28;20648;-69
2022/05/18 06:26:02;;;;;;;5.80;4.77;;;32.80;64.10;;;33.52;nan;101215.97;5030328;28;20620;-70
2022/05/18 06:28:29;;;;;;;4.50;4.10;;;33.10;63.70;;;34.16;nan;101219.09;5037739;28;20628;-69
2022/05/18 06:30:56;;;;;;;4.73;4.33;;;33.80;62.20;;;34.63;nan;101225.66;5037571;28;20624;-70
2022/05/18 06:33:23;;;;;;;5.10;4.50;;;34.20;59.80;;;35.67;nan;101215.25;5042396;28;20672;-70
2022/05/18 06:35:51;;;;;;;6.00;4.53;;;35.30;58.20;;;36.76;nan;101220.66;5010688;28;21203;-69
2022/05/18 06:38:20;;;;;;;5.60;4.97;;;36.40;55.90;;;37.75;nan;101223.69;5011092;28;20617;-69
2022/05/18 06:43:32;;;;;;;4.33;3.80;;;38.20;52.30;;;39.45;nan;101224.72;5030911;28;20675;-69
2022/05/18 06:46:01;;;;;;;5.63;4.20;;;39.00;50.50;;;39.69;nan;101229.44;5030557;28;20635;-70
2022/05/18 06:48:29;;;;;;;10.57;4.17;;;39.20;48.90;;;40.03;nan;101227.44;5024177;28;20632;-71
2022/05/18 06:51:12;;;;;;;9.00;3.80;;;39.50;47.90;;;40.35;nan;101229.50;5033953;28;20647;-69
2022/05/18 06:53:41;;;;;;;4.97;3.37;;;39.80;47.10;;;40.31;nan;101229.28;5020626;28;20664;-71
2022/05/18 06:56:08;;;;;;;7.73;3.70;;;40.20;45.40;;;40.89;nan;101236.16;5030204;28;20648;-71
2022/05/18 06:58:35;;;;;;;3.90;3.60;;;40.30;45.60;;;41.50;nan;101233.25;5038011;28;21169;-65
2022/05/18 07:01:04;;;;;;;7.03;5.10;;;40.90;44.20;;;41.58;nan;101228.97;5033281;28;20643;-70
2022/05/18 07:03:31;;;;;;;4.80;3.80;;;40.90;43.70;;;42.03;nan;101236.34;5038767;28;20660;-69
2022/05/18 07:05:58;;;;;;;4.50;3.80;;;41.30;43.50;;;41.19;nan;101236.78;5028177;28;21217;-69
2022/05/18 07:08:25;;;;;;;5.03;4.63;;;40.50;43.70;;;41.94;nan;101231.88;5028415;28;20640;-69
2022/05/18 07:10:52;;;;;;;4.70;4.30;;;41.20;43.20;;;42.69;nan;101237.72;5016845;28;20645;-71
2022/05/18 07:13:19;;;;;;;6.77;4.80;;;42.00;42.40;;;43.00;nan;101233.97;5010010;28;20669;-69
2022/05/18 07:15:47;;;;;;;4.50;4.10;;;42.40;41.80;;;43.22;nan;101233.97;5027508;28;20702;-71
2022/05/18 07:18:14;;;;;;;8.27;4.50;;;42.70;41.00;;;43.91;nan;101226.94;5035860;28;20616;-69
2022/05/18 07:20:41;;;;;;;4.63;4.03;;;43.30;40.20;;;44.74;nan;101233.25;5037540;28;20632;-70
2022/05/18 07:23:09;;;;;;;5.83;4.40;;;44.20;39.80;;;45.53;nan;101235.59;5040040;28;21247;-69
2022/05/18 07:25:36;;;;;;;4.23;3.83;;;45.00;39.60;;;45.91;nan;101240.00;5041834;28;20630;-69
2022/05/18 07:28:03;;;;;;;5.90;5.30;;;45.40;38.60;;;46.40;nan;101235.69;5033290;28;20632;-72
2022/05/18 07:30:49;;;;;;;3.97;3.77;;;46.00;38.90;;;46.62;nan;101235.34;5030366;28;20629;-69
2022/05/18 07:33:17;;;;;;;4.83;3.93;;;46.20;38.90;;;46.55;nan;101234.28;5027766;28;20683;-70
2022/05/18 07:35:44;;;;;;;3.97;3.73;;;46.20;37.50;;;46.63;nan;101234.22;5016796;28;20705;-71
2022/05/18 07:38:11;;;;;;;6.20;3.93;;;46.10;38.00;;;46.35;nan;101235.88;5009920;28;20634;-73
2022/05/18 07:40:59;;;;;;;4.30;4.00;;;46.00;37.10;;;46.59;nan;101238.78;5008841;28;21186;-70
2022/05/18 07:43:26;;;;;;;3.57;3.30;;;46.00;37.10;;;45.96;nan;101236.28;5022369;28;20671;-71
2022/05/18 07:45:55;;;;;;;3.47;3.27;;;45.50;36.80;;;44.39;nan;101228.81;5029100;28;20633;-72
2022/05/18 07:48:23;;;;;;;6.00;3.67;;;43.80;37.50;;;45.08;nan;101229.69;5023047;28;20633;-70
2022/05/18 07:50:51;;;;;;;3.70;3.20;;;44.40;37.50;;;45.59;nan;101240.63;5012865;28;20642;-70
2022/05/18 07:53:18;;;;;;;3.07;2.87;;;45.00;37.20;;;46.09;nan;101235.22;5025489;28;21094;-71
2022/05/18 07:55:46;;;;;;;3.10;2.90;;;45.60;36.30;;;46.33;nan;101238.19;5027987;28;20637;-72
2022/05/18 07:58:16;;;;;;;2.93;2.83;;;45.90;36.20;;;45.11;nan;101235.34;5021708;28;20637;-69
2022/05/18 08:00:43;;;;;;;3.23;3.03;;;44.90;36.00;;;44.31;nan;101227.69;5009401;28;21217;-70
2022/05/18 08:03:12;;;;;;;8.13;3.20;;;44.10;36.60;;;43.57;nan;101228.69;5009448;28;20672;-70
2022/05/18 08:05:41;;;;;;;2.90;2.80;;;43.00;37.10;;;41.92;nan;101223.16;5016939;28;21461;-69
2022/05/18 08:08:13;;;;;;;3.43;3.13;;;41.80;37.50;;;42.93;nan;101224.56;5031300;28;20632;-69
2022/05/18 08:16:17;;;;;;;3.10;3.00;;;42.80;37.60;;;43.54;nan;101230.13;5033587;28;20647;-70
2022/05/18 08:18:46;;;;;;;3.40;3.23;;;42.80;37.80;;;43.85;nan;101219.13;5034739;28;20612;-69
2022/05/18 08:21:13;;;;;;;4.07;3.20;;;43.20;37.40;;;43.05;nan;101228.34;5032652;28;20651;-70
2022/05/18 08:23:40;;;;;;;4.83;3.50;;;42.60;37.50;;;43.05;nan;101224.78;5032310;28;20679;-71
2022/05/18 08:26:08;;;;;;;3.10;2.80;;;42.30;37.90;;;42.37;nan;101220.31;5014443;28;21199;-69
2022/05/18 08:28:35;;;;;;;3.10;2.93;;;42.00;37.60;;;42.42;nan;101217.44;5020402;28;20666;-66
2022/05/18 08:31:03;;;;;;;3.00;2.90;;;42.00;37.70;;;42.51;nan;101222.22;5033082;28;21267;-71
2022/05/18 08:33:32;;;;;;;3.00;2.80;;;42.10;37.50;;;42.82;nan;101214.91;5027053;28;21256;-72
2022/05/18 08:36:02;;;;;;;3.27;2.97;;;42.50;37.70;;;42.06;nan;101216.59;5019606;28;20624;-69
2022/05/18 08:38:29;;;;;;;3.10;2.90;;;41.80;38.00;;;42.77;nan;101217.75;5033118;28;20623;-69
2022/05/18 08:41:01;;;;;;;3.53;3.30;;;42.00;37.80;;;42.72;nan;101215.16;5034321;28;20616;-69
2022/05/18 08:43:39;;;;;;;3.37;3.07;;;41.90;37.50;;;43.13;nan;101210.28;5033134;28;20703;-66
2022/05/18 08:46:33;;;;;;;2.90;2.70;;;42.50;37.70;;;43.37;nan;101220.97;5033767;28;20628;-69
2022/05/18 08:49:20;;;;;;;2.93;2.77;;;42.80;37.10;;;43.43;nan;101212.28;5031605;28;21285;-70
2022/05/18 08:52:17;;;;;;;3.47;3.07;;;43.00;36.80;;;42.96;nan;101211.00;5031642;28;20659;-70
2022/05/18 08:55:37;;;;;;;4.70;2.87;;;42.60;36.70;;;45.47;nan;101215.69;5024924;28;20662;-69
2022/05/18 08:58:23;;;;;;;3.00;2.90;;;44.60;36.40;;;47.28;nan;101216.09;5012244;28;20645;-69
2022/05/18 09:00:58;;;;;;;3.17;3.00;;;46.60;35.70;;;47.23;nan;101219.88;5011298;28;20641;-68
2022/05/18 09:03:41;;;;;;;2.83;2.73;;;46.70;34.80;;;47.94;nan;101220.31;5030731;28;20782;-69
2022/05/18 09:06:36;;;;;;;2.40;2.30;;;47.50;34.40;;;47.97;nan;101224.34;5029910;28;20639;-69
2022/05/18 09:12:34;;;;;;;2.50;2.40;;;46.10;34.20;;;46.66;nan;101221.72;5031855;28;20680;-69
2022/05/18 09:15:04;;;;;;;3.20;3.00;;;46.00;34.60;;;44.99;nan;101212.38;5029113;28;20773;-69
2022/05/18 09:17:57;;;;;;;3.07;2.97;;;46.20;34.10;;;47.10;nan;101223.75;5027067;28;21168;-69
2022/05/18 09:20:24;;;;;;;3.20;3.00;;;46.30;34.50;;;47.27;nan;101231.03;5026810;28;20633;-71
2022/05/18 09:23:34;;;;;;;2.80;2.70;;;46.80;34.40;;;47.51;nan;101218.13;5031768;28;20680;-72
2022/05/18 09:26:25;;;;;;;3.07;2.87;;;47.40;33.90;;;47.33;nan;101215.84;5026730;28;20627;-69
2022/05/18 09:29:10;;;;;;;2.80;2.70;;;46.80;34.20;;;49.25;nan;101215.91;5033238;28;21208;-69
2022/05/18 09:32:25;;;;;;;3.00;2.90;;;48.70;34.00;;;49.41;nan;101225.84;5030439;28;20678;-69
2022/05/18 09:35:39;;;;;;;2.93;2.83;;;49.50;33.20;;;49.91;nan;101221.56;5014601;28;20660;-70
2022/05/18 09:38:11;;;;;;;3.33;3.13;;;49.30;33.00;;;51.50;nan;101228.47;5031698;28;20628;-68
2022/05/18 09:40:46;;;;;;;3.33;3.23;;;50.90;32.80;;;50.79;nan;101218.78;5030218;28;20651;-67
2022/05/18 09:43:32;;;;;;;3.00;2.80;;;50.40;32.80;;;50.70;nan;101220.97;5030767;28;20666;-69
2022/05/18 09:45:59;;;;;;;2.90;2.80;;;51.00;32.90;;;50.41;nan;101221.53;5031491;28;21316;-69
2022/05/18 09:48:50;;;;;;;2.90;2.70;;;50.20;32.10;;;49.19;nan;101225.66;5031044;28;20628;-70
2022/05/18 09:51:18;;;;;;;3.07;2.87;;;49.80;32.40;;;46.18;nan;101210.31;5026840;28;20647;-69
2022/05/18 09:53:45;;;;;;;2.80;2.70;;;46.60;32.80;;;46.67;nan;101207.56;5029584;28;20690;-70
2022/05/18 09:56:22;;;;;;;2.63;2.43;;;46.10;33.30;;;46.90;nan;101212.72;5029874;28;20628;-69
2022/05/18 09:58:51;;;;;;;2.90;2.70;;;46.80;32.90;;;45.61;nan;101202.50;5028681;28;20632;-70
2022/05/18 10:09:45;;;;;;;2.13;2.03;;;40.80;35.70;;;40.74;nan;101192.56;5027705;28;20645;-69
2022/05/18 10:12:14;;;;;;;4.00;2.27;;;41.30;35.30;;;41.58;nan;101188.72;5029499;28;20676;-69
2022/05/18 10:14:41;;;;;;;2.60;2.40;;;41.40;35.10;;;41.00;nan;101184.78;5031340;28;20675;-72
2022/05/18 10:17:12;;;;;;;2.37;2.20;;;40.80;35.80;;;40.10;nan;101186.91;5019769;28;20648;-69
2022/05/18 10:19:49;;;;;;;2.50;2.30;;;39.80;36.40;;;38.25;nan;101173.72;5031419;28;20641;-67
2022/05/18 10:22:29;;;;;;;2.50;2.23;;;37.70;37.90;;;37.68;nan;101171.41;5015022;28;21037;-68
2022/05/18 10:25:28;;;;;;;2.43;2.23;;;36.80;38.00;;;36.68;nan;101178.47;5030110;28;21324;-70
2022/05/18 10:27:56;;;;;;;19.37;2.60;;;36.00;39.30;;;36.12;nan;101171.25;5034944;28;20681;-69
2022/05/18 10:30:31;;;;;;;4.67;2.00;;;35.20;40.00;;;35.46;nan;101168.09;5039016;28;20651;-68
2022/05/18 10:33:05;;;;;;;2.80;2.00;;;34.50;40.20;;;35.02;nan;101162.09;5024635;28;20679;-71
2022/05/18 10:35:38;;;;;;;2.30;2.20;;;34.00;40.50;;;34.72;nan;101169.09;5025157;28;20640;-70
2022/05/18 10:38:24;;;;;;;2.87;2.60;;;33.70;41.60;;;34.08;nan;101163.47;5031052;28;20640;-69
2022/05/18 10:41:08;;;;;;;2.00;1.90;;;33.20;42.40;;;33.11;nan;101156.88;5044928;28;20963;-69
2022/05/18 10:44:06;;;;;;;2.10;2.07;;;32.30;43.10;;;32.89;nan;101169.44;5031507;28;20668;-68
2022/05/18 10:46:51;;;;;;;5.77;2.83;;;32.00;43.60;;;32.78;nan;101152.22;5032069;28;20695;-72
2022/05/18 10:49:36;;;;;;;2.20;2.10;;;31.80;43.60;;;32.24;nan;101149.28;5025958;28;20640;-69
2022/05/18 10:52:33;;;;;;;2.40;2.30;;;31.40;44.00;;;32.03;nan;101148.84;5028126;28;20667;-70
2022/05/18 10:55:14;;;;;;;2.37;2.17;;;31.20;43.90;;;32.18;nan;101144.84;5028752;28;20644;-69
2022/05/18 10:57:58;;;;;;;2.53;2.33;;;31.20;44.20;;;32.05;nan;101151.31;5027133;28;21246;-69
2022/05/18 11:00:55;;;;;;;2.17;2.07;;;31.20;44.60;;;31.36;nan;101144.06;5031031;28;20628;-69
2022/05/18 11:03:49;;;;;;;3.30;1.80;;;30.70;43.70;;;31.40;nan;101139.88;5020653;28;20668;-71
2022/05/18 11:06:30;;;;;;;1.87;1.80;;;30.50;44.90;;;31.29;nan;101124.47;5028722;28;20643;-72
2022/05/18 11:09:21;;;;;;;2.57;2.37;;;30.40;45.20;;;31.20;nan;101128.59;5022580;28;20639;-68
2022/05/18 11:12:10;;;;;;;2.07;1.90;;;30.30;46.00;;;30.93;nan;101119.28;5021310;28;20673;-68
2022/05/18 11:15:07;;;;;;;2.27;1.97;;;30.20;45.00;;;30.75;nan;101122.84;5015389;28;20672;-68